ΕΜΥ, Εθνική Μετεωρολογική Υπηρεσία - Δελτία Καιρού, Προγνώσεις

ΑΕΡΟΝΑΥΤΙΛΙΑ

GREEK AIRPORTS CODES

TAF LGKF 282000Z 2821/2906 35012KT 9999 FEW012 SCT070=

EUROPEAN AIRPORTS CODES